Time;durP1;ratioP1;P1;durP2;ratioP2;P2;SDS_P1;SDS_P2;PMS_P1;PMS_P2;Temp;Humidity;BMP_temperature;BMP_pressure;BME280_temperature;BME280_humidity;BME280_pressure;Samples;Min_cycle;Max_cycle;Signal;HPM_P1;HPM_P2
2023/05/10 07:01:15;;;;;;;1.27;1.17;;;14.30;99.90;17.00;100807.00;;;;6278763;22;20230;-60
2023/05/10 07:03:41;;;;;;;4.13;3.67;;;14.30;99.90;17.50;100809.00;;;;6251758;22;20172;-59
2023/05/10 07:06:07;;;;;;;5.50;3.77;;;14.70;99.90;16.50;100810.00;;;;6226060;22;20155;-60
2023/05/10 07:08:34;;;;;;;12.37;5.20;;;14.50;99.90;17.30;100816.00;;;;6278508;22;20206;-60
2023/05/10 07:11:10;;;;;;;2.70;2.50;;;14.80;99.90;17.00;100796.00;;;;6251769;22;20138;-60
2023/05/10 07:13:38;;;;;;;6.13;5.23;;;14.80;99.90;19.30;100837.00;;;;6278063;22;20631;-60
2023/05/10 07:16:07;;;;;;;7.17;6.10;;;15.90;99.90;16.70;100819.00;;;;6278777;22;20148;-60
2023/05/10 07:18:39;;;;;;;6.67;5.77;;;15.30;99.90;16.80;100825.00;;;;6278197;22;20147;-60
2023/05/10 07:21:09;;;;;;;4.27;3.87;;;15.00;99.90;17.30;100833.00;;;;6278676;22;20173;-60
2023/05/10 07:23:40;;;;;;;2.60;2.50;;;15.10;99.90;17.20;100834.00;;;;6278347;22;20153;-60
2023/05/10 07:26:09;;;;;;;6.00;4.90;;;15.10;99.90;18.00;100825.00;;;;6278688;22;20140;-60
2023/05/10 07:28:41;;;;;;;0.37;0.37;;;15.30;99.90;17.60;100828.00;;;;6278339;22;20162;-60
2023/05/10 07:31:07;;;;;;;13.27;8.63;;;15.10;99.90;16.40;100824.00;;;;6251538;22;20231;-60
2023/05/10 07:33:35;;;;;;;2.40;2.20;;;14.80;99.90;17.70;100837.00;;;;6277975;22;20173;-60
2023/05/10 07:36:02;;;;;;;1.00;1.00;;;15.00;99.90;18.10;100843.00;;;;6250862;22;20160;-60
2023/05/10 07:38:31;;;;;;;4.73;3.10;;;15.40;99.90;17.70;100832.00;;;;6278273;22;20225;-60
2023/05/10 07:40:59;;;;;;;16.53;9.57;;;15.30;99.90;18.40;100845.00;;;;6277954;22;20191;-60
2023/05/10 07:43:31;;;;;;;1.77;1.67;;;15.70;99.90;19.50;100882.00;;;;6251050;22;20529;-60
2023/05/10 07:46:02;;;;;;;15.03;8.93;;;16.30;99.90;17.40;100849.00;;;;6251588;22;20515;-59
2023/05/10 07:48:28;;;;;;;6.17;3.30;;;15.60;99.90;17.30;100857.00;;;;6277880;22;20145;-60
2023/05/10 07:50:57;;;;;;;0.30;0.30;;;15.30;99.90;17.60;100843.00;;;;6250926;22;20140;-60
2023/05/10 07:53:23;;;;;;;5.43;3.60;;;15.10;99.90;18.30;100854.00;;;;6278111;22;20174;-60
2023/05/10 07:55:58;;;;;;;10.43;7.83;;;15.50;99.90;18.30;100866.00;;;;6277649;22;20138;-61
2023/05/10 07:58:26;;;;;;;4.03;2.50;;;15.60;99.90;17.40;100863.00;;;;6251267;22;20518;-60
2023/05/10 08:00:52;;;;;;;10.03;8.07;;;15.40;99.90;17.90;100862.00;;;;6220783;22;20268;-60
2023/05/10 08:03:21;;;;;;;5.83;2.80;;;15.40;99.90;17.30;100863.00;;;;6276080;22;20160;-60
2023/05/10 08:05:47;;;;;;;5.67;5.27;;;15.30;99.90;17.60;100852.00;;;;6277451;22;20568;-60
2023/05/10 08:08:13;;;;;;;7.57;6.10;;;15.20;99.90;17.90;100854.00;;;;6277310;22;20149;-60
2023/05/10 08:10:39;;;;;;;9.23;6.10;;;15.50;99.90;19.00;100871.00;;;;6274309;22;20162;-60
2023/05/10 08:13:08;;;;;;;9.60;6.40;;;16.30;99.90;19.80;100895.00;;;;6274651;22;20806;-60
2023/05/10 08:15:34;;;;;;;1.13;1.08;;;17.10;99.90;19.30;100896.00;;;;6277687;22;20137;-60
2023/05/10 08:18:00;;;;;;;6.72;2.58;;;17.10;99.90;18.70;100885.00;;;;6276069;22;20148;-60
2023/05/10 08:20:26;;;;;;;0.95;0.95;;;16.80;99.90;19.60;100887.00;;;;6277081;22;20468;-60
2023/05/10 08:22:55;;;;;;;1.02;1.02;;;16.80;99.90;20.20;100888.00;;;;6277964;22;20251;-60
2023/05/10 08:25:20;;;;;;;0.40;0.40;;;17.30;99.90;22.20;100928.00;;;;6277561;22;20141;-60
2023/05/10 08:27:46;;;;;;;13.18;5.60;;;18.50;99.90;20.90;100910.00;;;;6276187;22;20243;-60
2023/05/10 08:30:13;;;;;;;3.22;2.42;;;18.30;99.90;20.30;100901.00;;;;6277564;22;20156;-60
2023/05/10 08:32:39;;;;;;;4.10;3.80;;;17.80;99.90;21.00;100920.00;;;;6277477;22;20176;-60
2023/05/10 08:35:15;;;;;;;2.75;2.35;;;18.40;99.90;21.30;100933.00;;;;6277425;22;20141;-60
2023/05/10 08:37:41;;;;;;;2.65;2.45;;;18.80;99.90;20.50;100935.00;;;;6276351;22;20149;-60
2023/05/10 08:40:10;;;;;;;1.95;1.85;;;18.70;99.90;19.70;100917.00;;;;6277414;22;20164;-60
2023/05/10 08:42:55;;;;;;;2.65;2.45;;;17.80;99.90;21.30;100944.00;;;;6275967;22;20161;-60
2023/05/10 08:45:33;;;;;;;0.30;0.30;;;18.30;99.90;22.60;100963.00;;;;6276066;22;20145;-60
2023/05/10 08:48:02;;;;;;;0.22;0.22;;;18.90;99.90;23.20;100985.00;;;;6275888;22;20183;-60
2023/05/10 08:50:42;;;;;;;0.30;0.30;;;19.50;99.90;23.80;101011.00;;;;6275969;22;20160;-60
2023/05/10 08:53:25;;;;;;;0.20;0.20;;;19.70;99.90;24.00;100998.00;;;;6267185;22;20223;-60
2023/05/10 08:55:57;;;;;;;2.97;2.75;;;19.80;99.90;22.90;101036.00;;;;6247729;22;20239;-60
2023/05/10 08:58:36;;;;;;;0.20;0.20;;;19.40;99.90;23.70;101018.00;;;;6273256;22;20149;-60
2023/05/10 09:01:10;;;;;;;1.30;1.20;;;19.70;99.90;20.80;101035.00;;;;6275297;22;20591;-60
2023/05/10 09:03:42;;;;;;;0.20;0.20;;;18.50;99.90;20.40;100999.00;;;;6249916;22;20179;-60
2023/05/10 09:06:08;;;;;;;1.60;0.83;;;17.80;99.90;22.80;100989.00;;;;6275787;22;20145;-60
2023/05/10 09:08:46;;;;;;;1.45;1.40;;;18.40;99.90;23.80;101025.00;;;;6275526;22;20158;-61
2023/05/10 09:11:16;;;;;;;0.63;0.63;;;19.40;99.90;21.60;101008.00;;;;6224407;22;20196;-60
2023/05/10 09:13:43;;;;;;;1.23;1.23;;;18.40;99.90;21.60;101038.00;;;;6249237;22;20588;-61
2023/05/10 09:16:09;;;;;;;0.30;0.30;;;18.40;99.90;20.60;100932.00;;;;6274205;22;20236;-61
2023/05/10 09:19:18;;;;;;;2.27;1.50;;;17.60;99.90;19.40;100941.00;;;;6270640;22;20185;-60
2023/05/10 09:21:46;;;;;;;2.23;0.70;;;17.60;99.90;18.10;100897.00;;;;6271579;22;20141;-60
2023/05/10 09:24:12;;;;;;;0.57;0.57;;;16.30;99.90;18.90;100947.00;;;;6273888;22;20143;-60
2023/05/10 09:26:48;;;;;;;0.50;0.50;;;16.20;99.90;20.80;100978.00;;;;6244917;22;20842;-60
2023/05/10 09:29:18;;;;;;;1.47;1.37;;;16.70;99.90;19.60;100959.00;;;;6274635;22;20156;-60
2023/05/10 09:32:10;;;;;;;3.57;2.70;;;16.70;99.90;19.40;100954.00;;;;6274099;22;20149;-60
2023/05/10 09:34:42;;;;;;;0.87;0.50;;;16.50;99.90;20.70;100977.00;;;;6274304;22;20160;-60
2023/05/10 09:37:08;;;;;;;0.20;0.20;;;17.00;99.90;20.00;100964.00;;;;6275593;22;20495;-60
2023/05/10 09:40:15;;;;;;;3.97;3.60;;;17.20;99.90;19.30;100962.00;;;;6249685;22;20173;-60
2023/05/10 09:43:13;;;;;;;3.85;1.55;;;17.40;99.90;21.20;100988.00;;;;6276800;22;20180;-60
2023/05/10 09:45:41;;;;;;;2.38;1.17;;;18.10;99.90;22.60;100998.00;;;;6274849;22;20612;-60
2023/05/10 09:48:27;;;;;;;6.97;4.32;;;18.80;99.90;21.70;100975.00;;;;6249571;22;20172;-60
2023/05/10 09:50:59;;;;;;;0.10;0.10;;;18.90;99.90;20.90;100969.00;;;;6273244;22;20216;-60
2023/05/10 09:53:25;;;;;;;1.38;1.27;;;18.40;99.90;22.60;100983.00;;;;6276027;22;20218;-61
2023/05/10 09:55:51;;;;;;;0.25;0.25;;;19.20;99.90;24.00;101012.00;;;;6275282;22;20145;-61
2023/05/10 09:58:22;;;;;;;0.93;0.93;;;20.10;99.90;22.90;101046.00;;;;6273289;22;20221;-60
2023/05/10 10:00:51;;;;;;;0.25;0.20;;;20.40;99.90;25.10;101038.00;;;;6247727;22;20209;-60
2023/05/10 10:03:19;;;;;;;1.85;1.52;;;21.30;99.90;21.90;101064.00;;;;6273446;22;20187;-60
2023/05/10 10:05:47;;;;;;;1.48;1.40;;;20.20;99.90;21.90;100989.00;;;;6276425;22;20153;-60
2023/05/10 10:08:17;;;;;;;1.27;1.27;;;19.40;99.90;22.90;101004.00;;;;6273834;22;20156;-60
2023/05/10 10:10:46;;;;;;;0.63;0.60;;;19.30;99.90;21.90;101016.00;;;;6274162;22;20165;-60
2023/05/10 10:13:23;;;;;;;1.65;0.50;;;19.10;99.90;23.10;101011.00;;;;6274770;22;20515;-60
2023/05/10 10:16:27;;;;;;;2.40;2.20;;;19.30;99.90;21.70;101033.00;;;;6275578;22;20145;-60
2023/05/10 10:18:53;;;;;;;5.45;3.72;;;19.40;99.90;18.80;100956.00;;;;6274854;22;20157;-60
2023/05/10 10:33:54;;;;;;;1.03;1.03;;;16.90;99.90;21.40;100988.00;;;;5126524;27;20596;-61
2023/05/10 10:36:28;;;;;;;1.63;0.97;;;17.60;99.90;20.10;101011.00;;;;5072700;28;20192;-61
2023/05/10 10:39:10;;;;;;;6.80;4.15;;;17.90;99.90;18.70;100980.00;;;;5060360;28;20200;-60
2023/05/10 10:41:49;;;;;;;2.63;1.80;;;17.50;99.90;18.70;100973.00;;;;5068221;28;20685;-61
2023/05/10 10:44:33;;;;;;;3.30;2.40;;;16.80;99.90;19.80;100993.00;;;;5087329;28;20264;-60
2023/05/10 10:47:11;;;;;;;0.83;0.83;;;17.00;99.90;20.60;100985.00;;;;5053086;28;20193;-61
2023/05/10 10:50:03;;;;;;;0.60;0.60;;;17.40;99.90;19.90;100983.00;;;;5090441;28;20645;-60
2023/05/10 10:52:42;;;;;;;0.13;0.13;;;17.20;99.90;22.20;101007.00;;;;5064054;28;20226;-61
2023/05/10 10:55:29;;;;;;;0.95;0.95;;;18.10;99.90;22.80;100986.00;;;;5090101;28;20181;-61
2023/05/10 10:58:41;;;;;;;0.85;0.85;;;18.80;99.90;22.50;101011.00;;;;5086948;28;20178;-61
2023/05/10 11:01:32;;;;;;;2.35;2.17;;;18.90;99.90;20.60;100993.00;;;;5089000;28;20227;-61
2023/05/10 11:04:21;;;;;;;3.83;2.70;;;18.30;99.90;21.40;101013.00;;;;5089397;28;20181;-61
2023/05/10 11:07:17;;;;;;;1.67;1.60;;;18.60;99.90;20.90;100988.00;;;;5072271;28;20203;-61
2023/05/10 11:09:51;;;;;;;0.20;0.20;;;18.20;99.90;22.30;101012.00;;;;5086683;28;20192;-61
2023/05/10 11:12:20;;;;;;;3.33;1.70;;;18.70;99.90;20.50;100992.00;;;;5071030;28;20204;-61
2023/05/10 11:14:53;;;;;;;0.30;0.30;;;18.10;99.90;20.50;100985.00;;;;5089271;28;20646;-61
2023/05/10 11:17:32;;;;;;;3.17;2.38;;;17.80;99.90;19.70;100987.00;;;;5068320;28;20284;-61
2023/05/10 11:20:28;;;;;;;0.20;0.20;;;17.80;99.90;20.40;100997.00;;;;5086461;28;20196;-67
2023/05/10 11:23:43;;;;;;;4.47;2.38;;;17.70;99.90;19.80;100988.00;;;;5054120;28;20614;-61
2023/05/10 11:26:23;;;;;;;1.30;1.00;;;17.10;99.90;19.40;100987.00;;;;5082496;28;20188;-61
2023/05/10 11:29:12;;;;;;;0.70;0.70;;;17.00;99.90;20.00;100991.00;;;;5065258;28;20187;-61
2023/05/10 11:32:25;;;;;;;0.55;0.55;;;17.10;99.90;20.50;101000.00;;;;5088392;28;20239;-61
2023/05/10 11:35:14;;;;;;;3.00;1.45;;;17.50;99.90;19.60;100991.00;;;;5088586;28;20184;-60
2023/05/10 11:37:43;;;;;;;1.23;0.85;;;17.50;99.90;20.60;100989.00;;;;5089453;28;20192;-60
2023/05/10 11:40:10;;;;;;;0.55;0.55;;;17.50;99.90;19.70;100999.00;;;;5088836;28;20284;-60
2023/05/10 11:42:42;;;;;;;0.60;0.50;;;17.50;99.90;20.00;100995.00;;;;5086952;28;20652;-61
2023/05/10 11:45:08;;;;;;;1.45;0.75;;;17.40;99.90;19.60;100995.00;;;;5053306;28;20189;-60
2023/05/10 11:47:48;;;;;;;1.92;1.10;;;17.40;99.90;20.10;100996.00;;;;5057626;28;20193;-61
2023/05/10 11:50:17;;;;;;;2.70;2.47;;;17.50;99.90;19.50;101001.00;;;;5058075;28;20205;-60
2023/05/10 11:53:03;;;;;;;0.63;0.50;;;17.40;99.90;20.30;100992.00;;;;5075336;28;20208;-61
2023/05/10 11:55:30;;;;;;;0.20;0.20;;;17.30;99.90;21.90;101005.00;;;;5072878;28;20260;-61
2023/05/10 11:58:02;;;;;;;0.15;0.15;;;18.00;99.90;22.30;101006.00;;;;5057650;28;20701;-60
2023/05/10 12:00:28;;;;;;;1.90;1.75;;;18.60;99.90;20.50;100995.00;;;;5057696;28;20189;-62
2023/05/10 12:02:55;;;;;;;1.52;1.40;;;18.10;99.90;20.90;100986.00;;;;5057056;28;20639;-60
2023/05/10 12:05:24;;;;;;;2.23;1.53;;;18.10;99.90;19.50;100988.00;;;;5075563;28;20594;-60
2023/05/10 12:07:50;;;;;;;0.57;0.50;;;17.60;99.90;19.50;100979.00;;;;5075461;28;20231;-60
2023/05/10 12:10:34;;;;;;;4.70;1.67;;;17.20;99.90;20.80;100997.00;;;;5057459;28;20185;-60
2023/05/10 12:13:13;;;;;;;1.60;1.33;;;17.50;99.90;18.50;100980.00;;;;5074925;28;20701;-60
2023/05/10 12:15:45;;;;;;;7.73;4.23;;;17.10;99.90;18.90;100991.00;;;;5057801;28;20218;-61
2023/05/10 12:18:13;;;;;;;0.37;0.37;;;16.70;99.90;18.30;100982.00;;;;5056441;28;20274;-60
2023/05/10 12:21:00;;;;;;;0.50;0.50;;;16.40;99.90;18.60;101001.00;;;;5055564;28;20210;-60
2023/05/10 12:23:42;;;;;;;2.77;2.07;;;16.40;99.90;18.20;100979.00;;;;5054830;28;20242;-60
2023/05/10 12:26:11;;;;;;;0.40;0.30;;;16.40;99.90;19.50;101020.00;;;;5054015;28;20190;-60
2023/05/10 12:28:39;;;;;;;0.67;0.47;;;16.70;99.90;18.50;100992.00;;;;5075341;28;20269;-60
2023/05/10 12:31:06;;;;;;;5.27;2.30;;;16.40;99.90;18.70;101008.00;;;;5074558;28;20703;-60
2023/05/10 12:33:43;;;;;;;0.10;0.10;;;16.50;99.90;20.40;101025.00;;;;5054635;28;20197;-60
2023/05/10 12:36:11;;;;;;;1.43;1.33;;;16.90;99.90;19.20;101015.00;;;;5065573;28;20541;-60
2023/05/10 12:38:48;;;;;;;0.30;0.30;;;16.90;99.90;19.60;101005.00;;;;5074351;28;20192;-60
2023/05/10 12:41:17;;;;;;;0.10;0.10;;;16.80;99.90;21.90;101011.00;;;;5057876;28;20237;-61
2023/05/10 12:44:06;;;;;;;2.95;2.65;;;17.60;99.90;18.20;100986.00;;;;5073428;28;20698;-60
2023/05/10 12:46:35;;;;;;;2.10;2.00;;;17.00;99.90;16.50;100974.00;;;;5072623;28;20218;-60
2023/05/10 12:49:01;;;;;;;3.80;1.97;;;15.70;99.90;16.60;100969.00;;;;5074318;28;20650;-60
2023/05/10 12:51:27;;;;;;;1.13;1.10;;;15.10;99.90;16.90;100971.00;;;;5055902;28;20430;-60
2023/05/10 12:53:56;;;;;;;0.50;0.50;;;15.00;99.90;17.70;100984.00;;;;5056741;28;20420;-60
2023/05/10 12:56:22;;;;;;;0.70;0.70;;;15.30;99.90;17.40;100987.00;;;;5073976;28;20181;-60
2023/05/10 12:59:07;;;;;;;1.23;1.20;;;15.30;99.90;17.30;100985.00;;;;5074375;28;20225;-60
2023/05/10 13:01:32;;;;;;;2.80;2.50;;;15.30;99.90;17.10;100992.00;;;;5053304;28;20192;-60
2023/05/10 13:03:59;;;;;;;4.00;1.63;;;15.10;99.90;17.30;100987.00;;;;5074305;28;20182;-60
2023/05/10 13:06:25;;;;;;;1.60;1.50;;;15.20;99.90;17.30;100967.00;;;;5074461;28;20189;-60
2023/05/10 13:08:51;;;;;;;1.93;1.83;;;15.30;99.90;17.50;100956.00;;;;5056120;28;20238;-60
2023/05/10 13:11:38;;;;;;;0.20;0.20;;;15.20;99.90;17.90;100987.00;;;;5073809;28;20234;-60
2023/05/10 13:14:04;;;;;;;0.20;0.20;;;15.40;99.90;19.20;100991.00;;;;5057494;28;20592;-60
2023/05/10 13:16:31;;;;;;;0.33;0.33;;;15.70;99.90;19.00;100981.00;;;;5074066;28;20218;-60
2023/05/10 13:18:58;;;;;;;0.97;0.97;;;15.80;99.90;17.60;100996.00;;;;5074107;28;20224;-60
2023/05/10 13:21:59;;;;;;;0.20;0.20;;;15.60;99.90;17.70;100985.00;;;;5074034;28;20196;-60
2023/05/10 13:24:45;;;;;;;0.47;0.47;;;15.30;99.90;18.90;100987.00;;;;5073195;28;20323;-60
2023/05/10 13:28:30;;;;;;;0.50;0.50;;;15.60;99.90;18.30;101000.00;;;;5056145;28;20641;-60
2023/05/10 13:30:55;;;;;;;0.50;0.50;;;16.10;99.90;18.30;100994.00;;;;5059512;28;20275;-60
2023/05/10 13:33:21;;;;;;;2.73;2.50;;;15.90;99.90;17.60;100990.00;;;;5072293;28;20673;-57
2023/05/10 13:35:47;;;;;;;1.67;1.57;;;15.60;99.90;19.40;101003.00;;;;5055413;28;20188;-60
2023/05/10 13:38:23;;;;;;;0.20;0.20;;;16.00;99.90;19.10;101000.00;;;;5054885;28;20652;-60
2023/05/10 13:40:52;;;;;;;0.20;0.20;;;16.10;99.90;20.90;101014.00;;;;5073489;28;20188;-60
2023/05/10 13:43:40;;;;;;;0.57;0.57;;;16.90;99.90;20.70;101024.00;;;;5073500;28;20190;-60
2023/05/10 13:46:05;;;;;;;0.60;0.60;;;17.20;99.90;19.20;101009.00;;;;5073131;28;20199;-60
2023/05/10 13:48:31;;;;;;;1.17;1.17;;;16.90;99.90;18.80;101003.00;;;;5058807;28;20184;-60
2023/05/10 13:50:57;;;;;;;0.40;0.40;;;16.60;99.90;18.60;100995.00;;;;5073536;28;20189;-60
2023/05/10 13:53:50;;;;;;;1.07;0.70;;;16.30;99.90;21.30;101013.00;;;;5055608;28;20712;-60
2023/05/10 13:56:16;;;;;;;1.60;1.50;;;17.10;99.90;20.40;101017.00;;;;5062126;28;20183;-60
2023/05/10 13:58:53;;;;;;;10.00;5.63;;;17.20;99.90;21.60;101040.00;;;;5073143;28;20186;-60
2023/05/10 14:01:26;;;;;;;1.37;1.37;;;17.80;99.90;19.20;101004.00;;;;5073791;28;20237;-60
2023/05/10 14:04:08;;;;;;;1.07;1.07;;;17.10;99.90;18.90;100988.00;;;;5072953;28;20196;-60
2023/05/10 14:06:34;;;;;;;1.17;1.17;;;16.60;99.90;19.30;101012.00;;;;5073004;28;20191;-60
2023/05/10 14:09:24;;;;;;;3.23;2.23;;;16.50;99.90;20.40;101023.00;;;;5071836;28;20182;-60
2023/05/10 14:12:02;;;;;;;1.37;1.27;;;16.90;99.90;20.90;101027.00;;;;5053595;28;20252;-60
2023/05/10 14:15:05;;;;;;;0.40;0.40;;;17.30;99.90;21.00;101030.00;;;;5055707;28;20193;-60
2023/05/10 14:17:31;;;;;;;1.07;1.07;;;17.50;99.90;20.50;101024.00;;;;5072837;28;20201;-60
2023/05/10 14:20:15;;;;;;;0.73;0.50;;;17.20;99.90;19.80;101035.00;;;;5065584;28;20568;-60
2023/05/10 14:23:09;;;;;;;2.53;2.00;;;16.80;99.90;19.80;101037.00;;;;5073097;28;20244;-61
2023/05/10 14:25:36;;;;;;;0.20;0.20;;;16.50;99.90;19.30;101020.00;;;;5064074;28;20260;-69
2023/05/10 14:28:01;;;;;;;0.90;0.90;;;16.20;99.90;18.80;101026.00;;;;5050627;28;20202;-69
2023/05/10 14:30:48;;;;;;;0.20;0.20;;;15.90;99.90;19.70;101042.00;;;;5071652;28;20289;-69
2023/05/10 14:33:14;;;;;;;0.60;0.60;;;16.00;99.90;19.50;101045.00;;;;5039113;28;20233;-70
2023/05/10 14:35:40;;;;;;;0.20;0.20;;;16.00;99.90;19.60;101043.00;;;;5053394;28;20665;-70
2023/05/10 14:38:06;;;;;;;0.30;0.30;;;15.90;99.90;19.80;101054.00;;;;5055084;28;20182;-61
2023/05/10 14:40:32;;;;;;;0.77;0.77;;;16.00;99.90;19.60;101059.00;;;;5068391;28;20195;-61
2023/05/10 14:42:58;;;;;;;1.07;0.80;;;16.20;99.90;18.60;101063.00;;;;5065542;28;20974;-61
2023/05/10 14:45:24;;;;;;;0.20;0.20;;;15.90;99.90;19.30;101069.00;;;;5054868;28;20186;-61
2023/05/10 14:47:50;;;;;;;0.30;0.30;;;15.80;99.90;19.40;101060.00;;;;5070496;28;20235;-60
2023/05/10 14:50:17;;;;;;;0.30;0.30;;;15.80;99.90;19.80;101068.00;;;;5072326;28;20183;-61
2023/05/10 14:55:39;;;;;;;0.77;0.77;;;15.60;99.90;18.40;101039.00;;;;5068788;28;20248;-61
2023/05/10 14:58:05;;;;;;;0.30;0.30;;;15.40;99.90;19.10;101038.00;;;;5067046;28;20591;-61
2023/05/10 15:00:31;;;;;;;0.30;0.30;;;15.50;99.90;19.30;101050.00;;;;5072550;28;20181;-61
2023/05/10 15:03:17;;;;;;;0.30;0.30;;;15.80;99.90;18.50;101035.00;;;;5072495;28;20605;-61
2023/05/10 15:06:30;;;;;;;0.30;0.30;;;15.60;99.90;19.00;101042.00;;;;5065751;28;20584;-61
2023/05/10 15:09:00;;;;;;;0.53;0.53;;;15.70;99.90;19.30;101039.00;;;;5060443;28;20266;-61
2023/05/10 15:12:04;;;;;;;0.30;0.30;;;15.70;99.90;18.50;101048.00;;;;5072754;28;20195;-61
2023/05/10 15:15:25;;;;;;;0.30;0.30;;;15.60;99.90;18.60;101032.00;;;;5071491;28;20187;-61
2023/05/10 15:18:27;;;;;;;0.40;0.40;;;15.30;99.90;19.30;101019.00;;;;5070710;28;20190;-61
2023/05/10 15:21:45;;;;;;;0.20;0.20;;;15.50;99.90;19.40;101059.00;;;;5050494;28;20301;-61
2023/05/10 15:25:07;;;;;;;0.40;0.40;;;15.80;99.90;19.90;101065.00;;;;5076023;28;20190;-61
2023/05/10 15:28:25;;;;;;;0.30;0.30;;;16.00;99.90;19.10;101063.00;;;;5065691;28;20190;-61
2023/05/10 15:31:29;;;;;;;0.20;0.20;;;15.90;99.90;19.00;101050.00;;;;5057007;28;20193;-61
2023/05/10 15:34:53;;;;;;;0.30;0.30;;;15.50;99.90;19.70;101070.00;;;;5063362;28;20225;-61
2023/05/10 15:38:17;;;;;;;0.30;0.30;;;15.80;99.90;20.00;101077.00;;;;5067107;28;20197;-61
2023/05/10 15:41:28;;;;;;;0.30;0.30;;;16.00;99.90;20.00;101087.00;;;;5065143;28;20184;-61
2023/05/10 15:44:54;;;;;;;0.50;0.50;;;16.20;99.90;20.00;101087.00;;;;5057329;28;20912;-61
2023/05/10 15:48:18;;;;;;;0.30;0.30;;;16.20;99.90;19.80;101059.00;;;;5069331;28;20202;-61
2023/05/10 15:51:41;;;;;;;0.30;0.30;;;16.10;99.90;20.00;101093.00;;;;5075508;28;20761;-61
2023/05/10 15:54:50;;;;;;;0.30;0.30;;;16.10;99.90;20.00;101100.00;;;;5057884;28;20215;-61
2023/05/10 15:57:56;;;;;;;0.30;0.30;;;16.20;99.90;19.30;101100.00;;;;5075483;28;20343;-61
2023/05/10 16:01:20;;;;;;;0.30;0.30;;;16.00;99.90;18.70;101083.00;;;;5057315;28;20236;-61
2023/05/10 16:04:41;;;;;;;0.30;0.30;;;15.60;99.90;17.90;101076.00;;;;5064468;28;20256;-61
2023/05/10 16:07:07;;;;;;;0.30;0.30;;;15.30;99.90;18.80;101081.00;;;;5073417;28;20194;-62
2023/05/10 16:10:05;;;;;;;0.30;0.30;;;15.30;99.90;18.90;101083.00;;;;5074177;28;20269;-62
2023/05/10 16:12:59;;;;;;;0.20;0.20;;;15.30;99.90;18.10;101053.00;;;;5069014;28;20558;-60
2023/05/10 16:15:42;;;;;;;0.40;0.40;;;15.10;99.90;19.10;101076.00;;;;5070232;28;20467;-63
2023/05/10 16:18:31;;;;;;;1.03;0.87;;;15.30;99.90;19.10;101083.00;;;;5072588;28;20175;-61
2023/05/10 16:21:22;;;;;;;0.20;0.20;;;15.50;99.90;16.90;101060.00;;;;5074698;28;20529;-61
2023/05/10 16:24:24;;;;;;;1.53;1.43;;;14.80;99.90;18.20;101067.00;;;;5057004;28;20197;-61
2023/05/10 16:27:12;;;;;;;0.30;0.30;;;14.90;99.90;18.50;101062.00;;;;5056618;28;20231;-61
2023/05/10 16:30:23;;;;;;;0.30;0.30;;;15.00;99.90;19.40;101069.00;;;;5074053;28;20596;-62
2023/05/10 16:32:49;;;;;;;0.30;0.30;;;15.30;99.90;19.30;101078.00;;;;5044258;28;20564;-62
2023/05/10 16:35:25;;;;;;;0.40;0.40;;;15.50;99.90;17.80;101066.00;;;;5052740;28;20579;-61
2023/05/10 16:38:27;;;;;;;0.30;0.30;;;15.20;99.90;18.00;101060.00;;;;5073431;28;20248;-61
2023/05/10 16:41:27;;;;;;;0.30;0.30;;;14.80;99.90;17.70;101059.00;;;;5069493;28;20225;-61
2023/05/10 16:44:16;;;;;;;1.07;1.07;;;14.90;99.90;17.70;101063.00;;;;5056822;28;20283;-61
2023/05/10 16:47:16;;;;;;;0.30;0.30;;;14.80;99.90;18.00;101062.00;;;;5074328;28;20613;-62
2023/05/10 16:50:10;;;;;;;0.30;0.30;;;14.80;99.90;18.80;101067.00;;;;5074731;28;20659;-64
2023/05/10 16:53:08;;;;;;;0.30;0.30;;;15.10;99.90;19.70;101081.00;;;;5064200;28;20215;-66
2023/05/10 16:55:59;;;;;;;0.70;0.70;;;15.60;99.90;19.90;101087.00;;;;5034290;28;20203;-61
2023/05/10 16:58:26;;;;;;;0.70;0.70;;;15.90;99.90;20.00;101100.00;;;;5074363;28;20718;-61
2023/05/10 17:00:54;;;;;;;0.47;0.47;;;16.20;99.90;20.10;101102.00;;;;5056275;28;20186;-61
2023/05/10 17:03:20;;;;;;;0.30;0.30;;;16.20;99.90;20.00;101095.00;;;;5074148;28;20185;-61
2023/05/10 17:06:12;;;;;;;0.30;0.30;;;16.30;99.90;19.70;101094.00;;;;5085303;28;20214;-61
2023/05/10 17:09:01;;;;;;;10.30;1.20;;;16.20;99.90;19.20;101081.00;;;;5074477;28;20260;-61
2023/05/10 17:12:04;;;;;;;0.30;0.30;;;16.10;99.90;19.90;101094.00;;;;5046785;28;20214;-61
2023/05/10 17:14:42;;;;;;;0.40;0.40;;;16.20;99.90;19.10;101078.00;;;;5074332;28;20228;-61
2023/05/10 17:17:38;;;;;;;0.30;0.30;;;15.90;99.90;19.90;101091.00;;;;5043923;28;20182;-61
2023/05/10 17:20:33;;;;;;;0.30;0.30;;;16.10;99.90;20.00;101078.00;;;;5073983;28;20189;-61
2023/05/10 17:23:01;;;;;;;0.40;0.40;;;16.20;99.90;20.00;101089.00;;;;5071675;28;20278;-61
2023/05/10 17:25:42;;;;;;;0.40;0.40;;;16.30;99.90;20.00;101106.00;;;;5056459;28;20186;-61
2023/05/10 17:28:31;;;;;;;0.40;0.40;;;16.20;99.90;19.90;101103.00;;;;5072310;28;20281;-61
2023/05/10 17:31:14;;;;;;;0.30;0.30;;;16.30;99.90;19.50;101104.00;;;;5072805;28;20191;-61
2023/05/10 17:34:01;;;;;;;0.30;0.30;;;16.00;99.90;20.20;101109.00;;;;5073996;28;20278;-61
2023/05/10 17:36:28;;;;;;;0.40;0.40;;;16.20;99.90;20.10;101105.00;;;;5072507;28;20179;-62
2023/05/10 17:39:25;;;;;;;0.50;0.50;;;16.30;99.90;20.00;101108.00;;;;5073587;28;20186;-61
2023/05/10 17:41:56;;;;;;;0.50;0.50;;;16.20;99.90;20.00;101101.00;;;;5047786;28;20220;-61
2023/05/10 17:44:39;;;;;;;0.50;0.50;;;16.20;99.90;19.80;101106.00;;;;5071854;28;20183;-61
2023/05/10 17:47:20;;;;;;;0.40;0.40;;;16.10;99.90;20.10;101106.00;;;;5073068;28;20555;-61
2023/05/10 17:50:01;;;;;;;0.40;0.40;;;16.30;99.90;20.10;101120.00;;;;5063664;28;20183;-61
2023/05/10 17:52:54;;;;;;;0.70;0.70;;;16.40;99.90;19.90;101107.00;;;;5072038;28;20667;-61
2023/05/10 17:55:50;;;;;;;0.30;0.30;;;16.20;99.90;20.10;101116.00;;;;5071501;28;20199;-61
2023/05/10 17:58:38;;;;;;;0.40;0.40;;;16.30;99.90;20.10;101118.00;;;;5072143;28;20195;-61
2023/05/10 18:01:32;;;;;;;0.53;0.53;;;16.30;99.90;20.20;101119.00;;;;5072828;28;20278;-61
2023/05/10 18:04:33;;;;;;;0.67;0.67;;;16.30;99.90;19.90;101108.00;;;;5055634;28;20535;-61
2023/05/10 18:07:04;;;;;;;0.40;0.40;;;16.30;99.90;19.50;101111.00;;;;5011470;28;20193;-61
2023/05/10 18:09:48;;;;;;;0.40;0.40;;;16.10;99.90;19.80;101115.00;;;;4994865;28;20197;-61
2023/05/10 18:12:42;;;;;;;0.50;0.50;;;16.20;99.90;19.80;101118.00;;;;5001520;28;20196;-61
2023/05/10 18:15:34;;;;;;;0.40;0.40;;;16.10;99.90;20.20;101122.00;;;;5001120;28;20208;-61
2023/05/10 18:18:15;;;;;;;0.40;0.40;;;16.20;99.90;20.40;101103.00;;;;5059686;28;20178;-61
2023/05/10 18:20:55;;;;;;;0.40;0.40;;;16.40;99.90;19.90;101124.00;;;;5055170;28;20184;-61
2023/05/10 18:23:48;;;;;;;0.40;0.40;;;16.30;99.90;20.00;101103.00;;;;5055980;28;20198;-61
2023/05/10 18:26:35;;;;;;;0.40;0.40;;;16.20;99.90;19.80;101117.00;;;;5072843;28;20274;-61
2023/05/10 18:29:19;;;;;;;0.60;0.60;;;16.10;99.90;19.70;101095.00;;;;5071687;28;20190;-61
2023/05/10 18:32:38;;;;;;;0.50;0.50;;;16.10;99.90;19.30;101122.00;;;;5072935;28;20203;-61
2023/05/10 18:35:34;;;;;;;0.40;0.40;;;16.10;99.90;19.90;101111.00;;;;4991335;28;20246;-61
2023/05/10 18:38:27;;;;;;;0.40;0.40;;;16.00;99.90;19.90;101115.00;;;;5026312;28;20734;-61
2023/05/10 18:41:13;;;;;;;0.40;0.40;;;16.10;99.90;19.70;101123.00;;;;5071101;28;20181;-62
2023/05/10 18:43:45;;;;;;;0.43;0.43;;;15.90;99.90;20.10;101126.00;;;;5059467;28;20194;-61
2023/05/10 18:46:12;;;;;;;0.50;0.50;;;16.10;99.90;20.10;101105.00;;;;5072784;28;20186;-61
2023/05/10 18:48:54;;;;;;;0.40;0.40;;;16.10;99.90;19.30;101125.00;;;;5055119;28;20517;-61
2023/05/10 18:51:30;;;;;;;0.50;0.50;;;15.90;99.90;19.50;101123.00;;;;5054608;28;20182;-61
2023/05/10 18:54:42;;;;;;;0.40;0.40;;;15.80;99.90;19.50;101139.00;;;;5073795;28;20206;-61
2023/05/10 18:57:10;;;;;;;0.67;0.67;;;15.80;99.90;19.60;101140.00;;;;5074282;28;20203;-61
2023/05/10 18:59:45;;;;;;;0.40;0.40;;;15.90;99.90;19.60;101142.00;;;;5059054;28;20194;-60